sensor_id;sensor_type;location;lat;lon;timestamp;pressure;altitude;pressure_sealevel;temperature;humidity
13387;BME280;6763;48.524;9.044;2022-12-05T15:04:04;97932.97;;;7.35;63.43
13387;BME280;6763;48.524;9.044;2022-12-05T15:06:36;97925.75;;;9.07;56.90
13387;BME280;6763;48.524;9.044;2022-12-05T15:09:26;97928.84;;;10.05;53.19
13387;BME280;6763;48.524;9.044;2022-12-05T15:11:53;97928.22;;;10.47;51.70
13387;BME280;6763;48.524;9.044;2022-12-05T15:14:22;97930.53;;;10.66;51.32
13387;BME280;6763;48.524;9.044;2022-12-05T15:16:52;97925.22;;;10.73;50.64
13387;BME280;6763;48.524;9.044;2022-12-05T15:19:30;97937.19;;;10.79;50.11
13387;BME280;6763;48.524;9.044;2022-12-05T15:21:59;97925.94;;;10.81;50.55
13387;BME280;6763;48.524;9.044;2022-12-05T15:24:25;97925.94;;;10.80;50.49
13387;BME280;6763;48.524;9.044;2022-12-05T15:26:57;97919.97;;;10.76;50.31
13387;BME280;6763;48.524;9.044;2022-12-05T15:29:27;97925.31;;;10.67;50.51
13387;BME280;6763;48.524;9.044;2022-12-05T15:31:59;97932.34;;;10.61;50.60
13387;BME280;6763;48.524;9.044;2022-12-05T15:39:50;97931.84;;;10.36;51.08
13387;BME280;6763;48.524;9.044;2022-12-05T15:42:16;97941.41;;;10.32;51.37
13387;BME280;6763;48.524;9.044;2022-12-05T15:44:42;97942.22;;;10.34;51.35
13387;BME280;6763;48.524;9.044;2022-12-05T15:47:24;97947.38;;;10.37;51.25
13387;BME280;6763;48.524;9.044;2022-12-05T15:49:50;97949.06;;;10.38;51.26
13387;BME280;6763;48.524;9.044;2022-12-05T15:52:43;97949.88;;;10.40;50.88
13387;BME280;6763;48.524;9.044;2022-12-05T15:55:16;97953.34;;;10.41;50.72
13387;BME280;6763;48.524;9.044;2022-12-05T15:57:50;97966.28;;;10.41;50.66
13387;BME280;6763;48.524;9.044;2022-12-05T16:00:18;97962.00;;;10.40;51.08
13387;BME280;6763;48.524;9.044;2022-12-05T16:02:47;97965.44;;;10.39;51.16
13387;BME280;6763;48.524;9.044;2022-12-05T16:05:21;97960.22;;;10.40;50.99
13387;BME280;6763;48.524;9.044;2022-12-05T16:07:50;97968.03;;;10.39;51.32
13387;BME280;6763;48.524;9.044;2022-12-05T16:10:19;97971.53;;;10.36;50.88
13387;BME280;6763;48.524;9.044;2022-12-05T16:12:46;97970.69;;;10.33;51.19
13387;BME280;6763;48.524;9.044;2022-12-05T16:15:17;97968.19;;;10.28;51.16
13387;BME280;6763;48.524;9.044;2022-12-05T16:17:46;97976.00;;;10.25;51.14
13387;BME280;6763;48.524;9.044;2022-12-05T16:22:45;97987.31;;;10.18;51.47
13387;BME280;6763;48.524;9.044;2022-12-05T16:25:15;97980.41;;;10.17;51.19
13387;BME280;6763;48.524;9.044;2022-12-05T16:27:42;97977.00;;;10.17;51.27
13387;BME280;6763;48.524;9.044;2022-12-05T16:32:44;97974.31;;;10.23;51.37
13387;BME280;6763;48.524;9.044;2022-12-05T16:38:08;97987.94;;;10.34;50.78
13387;BME280;6763;48.524;9.044;2022-12-05T16:40:35;97980.16;;;10.37;51.11
13387;BME280;6763;48.524;9.044;2022-12-05T16:43:17;97988.69;;;10.42;50.77
13387;BME280;6763;48.524;9.044;2022-12-05T16:45:44;97981.72;;;10.45;50.79
13387;BME280;6763;48.524;9.044;2022-12-05T16:48:30;97982.56;;;10.47;50.43
13387;BME280;6763;48.524;9.044;2022-12-05T16:51:21;97989.44;;;10.50;50.47
13387;BME280;6763;48.524;9.044;2022-12-05T16:53:54;97989.41;;;10.51;50.80
13387;BME280;6763;48.524;9.044;2022-12-05T16:56:25;97981.63;;;10.53;50.71
13387;BME280;6763;48.524;9.044;2022-12-05T16:58:52;97986.81;;;10.53;50.61
13387;BME280;6763;48.524;9.044;2022-12-05T17:01:25;97991.13;;;10.52;50.18
13387;BME280;6763;48.524;9.044;2022-12-05T17:03:55;97986.00;;;10.48;50.55
13387;BME280;6763;48.524;9.044;2022-12-05T17:06:22;97987.75;;;10.46;50.75
13387;BME280;6763;48.524;9.044;2022-12-05T17:08:48;97982.69;;;10.40;50.70
13387;BME280;6763;48.524;9.044;2022-12-05T17:11:23;97984.41;;;10.38;50.46
13387;BME280;6763;48.524;9.044;2022-12-05T17:13:49;97981.91;;;10.33;50.83
13387;BME280;6763;48.524;9.044;2022-12-05T17:16:15;97984.53;;;10.30;51.38
13387;BME280;6763;48.524;9.044;2022-12-05T17:18:42;97988.03;;;10.28;51.18
13387;BME280;6763;48.524;9.044;2022-12-05T17:21:16;97982.06;;;10.23;51.10
13387;BME280;6763;48.524;9.044;2022-12-05T17:23:42;97989.00;;;10.21;51.66
13387;BME280;6763;48.524;9.044;2022-12-05T17:26:12;97992.50;;;10.17;51.27
13387;BME280;6763;48.524;9.044;2022-12-05T17:28:38;97989.06;;;10.15;51.47
13387;BME280;6763;48.524;9.044;2022-12-05T17:31:04;97996.00;;;10.11;51.40
13387;BME280;6763;48.524;9.044;2022-12-05T17:33:29;97996.88;;;10.10;51.60
13387;BME280;6763;48.524;9.044;2022-12-05T17:35:55;97999.47;;;10.09;51.73
13387;BME280;6763;48.524;9.044;2022-12-05T17:38:20;97999.47;;;10.07;51.88
13387;BME280;6763;48.524;9.044;2022-12-05T17:40:46;97999.47;;;10.09;52.02
13387;BME280;6763;48.524;9.044;2022-12-05T17:43:12;97996.03;;;10.08;51.38
13387;BME280;6763;48.524;9.044;2022-12-05T17:45:41;97998.63;;;10.08;51.50
13387;BME280;6763;48.524;9.044;2022-12-05T17:48:14;97999.47;;;10.09;51.30
13387;BME280;6763;48.524;9.044;2022-12-05T17:50:41;97999.47;;;10.07;51.65
13387;BME280;6763;48.524;9.044;2022-12-05T17:53:11;98001.22;;;10.07;51.54
13387;BME280;6763;48.524;9.044;2022-12-05T17:55:36;97991.81;;;10.01;52.03
13387;BME280;6763;48.524;9.044;2022-12-05T17:58:02;97994.38;;;10.03;51.89
13387;BME280;6763;48.524;9.044;2022-12-05T18:00:27;98001.28;;;10.02;51.95
13387;BME280;6763;48.524;9.044;2022-12-05T18:02:53;98003.88;;;10.02;51.98
13387;BME280;6763;48.524;9.044;2022-12-05T18:05:18;98000.44;;;10.00;52.01
13387;BME280;6763;48.524;9.044;2022-12-05T18:07:44;97995.28;;;10.00;52.20
13387;BME280;6763;48.524;9.044;2022-12-05T18:10:14;97998.72;;;9.99;51.91
13387;BME280;6763;48.524;9.044;2022-12-05T18:12:40;97998.72;;;9.99;52.53
13387;BME280;6763;48.524;9.044;2022-12-05T18:15:06;97997.94;;;9.95;52.29
13387;BME280;6763;48.524;9.044;2022-12-05T18:17:31;97998.81;;;9.91;52.56
13387;BME280;6763;48.524;9.044;2022-12-05T18:20:00;97995.47;;;9.85;53.11
13387;BME280;6763;48.524;9.044;2022-12-05T18:22:26;98002.47;;;9.77;52.80
13387;BME280;6763;48.524;9.044;2022-12-05T18:24:52;98000.84;;;9.70;52.89
13387;BME280;6763;48.524;9.044;2022-12-05T18:27:19;98000.94;;;9.61;53.34
13387;BME280;6763;48.524;9.044;2022-12-05T18:29:48;97998.44;;;9.53;53.49
13387;BME280;6763;48.524;9.044;2022-12-05T18:32:14;97998.56;;;9.41;53.72
13387;BME280;6763;48.524;9.044;2022-12-05T18:34:40;98007.28;;;9.32;54.28
13387;BME280;6763;48.524;9.044;2022-12-05T18:37:05;98006.50;;;9.23;53.90
13387;BME280;6763;48.524;9.044;2022-12-05T18:39:31;97998.84;;;9.15;54.42
13387;BME280;6763;48.524;9.044;2022-12-05T18:41:57;98008.38;;;9.10;54.83
13387;BME280;6763;48.524;9.044;2022-12-05T18:44:22;98012.66;;;9.10;54.73
13387;BME280;6763;48.524;9.044;2022-12-05T18:46:50;98010.09;;;9.07;54.70
13387;BME280;6763;48.524;9.044;2022-12-05T18:49:16;98004.97;;;9.04;54.78
13387;BME280;6763;48.524;9.044;2022-12-05T18:51:41;98015.31;;;9.01;54.58
13387;BME280;6763;48.524;9.044;2022-12-05T18:54:06;98016.19;;;9.00;55.22
13387;BME280;6763;48.524;9.044;2022-12-05T18:56:33;98006.72;;;9.02;55.42
13387;BME280;6763;48.524;9.044;2022-12-05T18:59:01;98019.56;;;9.06;54.76
13387;BME280;6763;48.524;9.044;2022-12-05T19:01:30;98008.38;;;9.06;55.09
13387;BME280;6763;48.524;9.044;2022-12-05T19:03:56;98019.50;;;9.14;54.92
13387;BME280;6763;48.524;9.044;2022-12-05T19:06:24;98022.88;;;9.22;55.28
13387;BME280;6763;48.524;9.044;2022-12-05T19:08:53;98020.25;;;9.25;54.57
13387;BME280;6763;48.524;9.044;2022-12-05T19:11:19;98020.22;;;9.29;54.77
13387;BME280;6763;48.524;9.044;2022-12-05T19:13:44;98023.59;;;9.34;54.88
13387;BME280;6763;48.524;9.044;2022-12-05T19:16:11;98024.41;;;9.41;54.46
13387;BME280;6763;48.524;9.044;2022-12-05T19:18:45;98020.03;;;9.45;54.34
13387;BME280;6763;48.524;9.044;2022-12-05T19:21:11;98024.31;;;9.52;54.43
13387;BME280;6763;48.524;9.044;2022-12-05T19:23:37;98033.72;;;9.56;54.60
13387;BME280;6763;48.524;9.044;2022-12-05T19:26:05;98025.91;;;9.60;53.82
13387;BME280;6763;48.524;9.044;2022-12-05T19:28:32;98024.16;;;9.64;53.91
13387;BME280;6763;48.524;9.044;2022-12-05T19:31:03;98019.81;;;9.67;54.00
13387;BME280;6763;48.524;9.044;2022-12-05T19:33:30;98031.00;;;9.69;53.84
13387;BME280;6763;48.524;9.044;2022-12-05T19:36:01;98033.50;;;9.74;54.02
13387;BME280;6763;48.524;9.044;2022-12-05T19:38:30;98021.44;;;9.74;53.65
13387;BME280;6763;48.524;9.044;2022-12-05T19:40:56;98024.00;;;9.76;53.48
13387;BME280;6763;48.524;9.044;2022-12-05T19:43:22;98022.25;;;9.79;54.10
13387;BME280;6763;48.524;9.044;2022-12-05T19:45:47;98021.38;;;9.80;53.80
13387;BME280;6763;48.524;9.044;2022-12-05T19:48:16;98032.53;;;9.84;53.26
13387;BME280;6763;48.524;9.044;2022-12-05T19:50:41;98023.06;;;9.84;53.80
13387;BME280;6763;48.524;9.044;2022-12-05T19:53:07;98023.91;;;9.83;53.81
13387;BME280;6763;48.524;9.044;2022-12-05T19:55:36;98012.72;;;9.84;53.51
13387;BME280;6763;48.524;9.044;2022-12-05T19:58:01;98016.13;;;9.88;53.46
13387;BME280;6763;48.524;9.044;2022-12-05T20:00:27;98029.06;;;9.88;53.41
13387;BME280;6763;48.524;9.044;2022-12-05T20:02:55;98019.53;;;9.90;53.27
13387;BME280;6763;48.524;9.044;2022-12-05T20:05:21;98016.13;;;9.88;52.99
13387;BME280;6763;48.524;9.044;2022-12-05T20:07:46;98016.13;;;9.86;53.27
13387;BME280;6763;48.524;9.044;2022-12-05T20:10:11;98020.44;;;9.87;53.91
13387;BME280;6763;48.524;9.044;2022-12-05T20:12:37;98019.53;;;9.88;53.70
13387;BME280;6763;48.524;9.044;2022-12-05T20:15:02;98015.25;;;9.87;53.37
13387;BME280;6763;48.524;9.044;2022-12-05T20:17:28;98012.72;;;9.84;53.75
13387;BME280;6763;48.524;9.044;2022-12-05T20:19:53;98009.28;;;9.81;53.56
13387;BME280;6763;48.524;9.044;2022-12-05T20:22:19;98019.63;;;9.82;53.69
13387;BME280;6763;48.524;9.044;2022-12-05T20:24:44;98023.13;;;9.80;53.10
13387;BME280;6763;48.524;9.044;2022-12-05T20:27:09;98021.38;;;9.80;53.66
13387;BME280;6763;48.524;9.044;2022-12-05T20:29:35;98020.53;;;9.80;53.21
13387;BME280;6763;48.524;9.044;2022-12-05T20:32:03;98026.56;;;9.80;53.25
13387;BME280;6763;48.524;9.044;2022-12-05T20:34:28;98023.06;;;9.84;53.65
13387;BME280;6763;48.524;9.044;2022-12-05T20:36:53;98021.34;;;9.85;53.07
13387;BME280;6763;48.524;9.044;2022-12-05T20:39:19;98011.84;;;9.84;53.27
13387;BME280;6763;48.524;9.044;2022-12-05T20:41:44;98011.84;;;9.84;53.03
13387;BME280;6763;48.524;9.044;2022-12-05T20:44:13;98021.34;;;9.85;53.11
13387;BME280;6763;48.524;9.044;2022-12-05T20:46:39;98017.91;;;9.83;53.07
13387;BME280;6763;48.524;9.044;2022-12-05T20:49:05;98018.78;;;9.82;53.12
13387;BME280;6763;48.524;9.044;2022-12-05T20:51:32;98029.13;;;9.82;53.47
13387;BME280;6763;48.524;9.044;2022-12-05T20:53:59;98029.13;;;9.82;53.78
13387;BME280;6763;48.524;9.044;2022-12-05T20:56:28;98030.00;;;9.79;53.63
13387;BME280;6763;48.524;9.044;2022-12-05T20:58:55;98032.56;;;9.81;53.48
13387;BME280;6763;48.524;9.044;2022-12-05T21:01:23;98037.75;;;9.79;53.50
13387;BME280;6763;48.524;9.044;2022-12-05T21:03:50;98037.75;;;9.79;53.75
13387;BME280;6763;48.524;9.044;2022-12-05T21:06:18;98044.69;;;9.77;53.80
13387;BME280;6763;48.524;9.044;2022-12-05T21:08:46;98042.09;;;9.76;53.45
13387;BME280;6763;48.524;9.044;2022-12-05T21:11:11;98054.16;;;9.75;53.55
13387;BME280;6763;48.524;9.044;2022-12-05T21:13:37;98046.41;;;9.75;53.32
13387;BME280;6763;48.524;9.044;2022-12-05T21:16:07;98047.28;;;9.74;53.83
13387;BME280;6763;48.524;9.044;2022-12-05T21:18:33;98045.56;;;9.73;53.60
13387;BME280;6763;48.524;9.044;2022-12-05T21:21:04;98034.41;;;9.71;53.81
13387;BME280;6763;48.524;9.044;2022-12-05T21:23:29;98034.44;;;9.70;53.54
13387;BME280;6763;48.524;9.044;2022-12-05T21:26:03;98036.16;;;9.69;53.35
13387;BME280;6763;48.524;9.044;2022-12-05T21:28:30;98037.88;;;9.69;53.92
13387;BME280;6763;48.524;9.044;2022-12-05T21:31:06;98029.25;;;9.68;53.48
13387;BME280;6763;48.524;9.044;2022-12-05T21:33:32;98030.16;;;9.66;53.50
13387;BME280;6763;48.524;9.044;2022-12-05T21:35:57;98031.88;;;9.65;53.68
13387;BME280;6763;48.524;9.044;2022-12-05T21:38:22;98030.19;;;9.64;53.98
13387;BME280;6763;48.524;9.044;2022-12-05T21:40:48;98031.03;;;9.63;53.62
13387;BME280;6763;48.524;9.044;2022-12-05T21:43:13;98035.34;;;9.64;53.81
13387;BME280;6763;48.524;9.044;2022-12-05T21:45:38;98029.34;;;9.62;53.82
13387;BME280;6763;48.524;9.044;2022-12-05T21:48:04;98034.50;;;9.64;53.53
13387;BME280;6763;48.524;9.044;2022-12-05T21:50:29;98037.94;;;9.63;53.92
13387;BME280;6763;48.524;9.044;2022-12-05T21:52:55;98029.34;;;9.61;53.74
13387;BME280;6763;48.524;9.044;2022-12-05T21:55:20;98035.38;;;9.61;54.19
13387;BME280;6763;48.524;9.044;2022-12-05T21:57:45;98037.09;;;9.61;53.98
13387;BME280;6763;48.524;9.044;2022-12-05T22:00:11;98037.09;;;9.61;54.17
13387;BME280;6763;48.524;9.044;2022-12-05T22:02:36;98035.41;;;9.58;54.13
13387;BME280;6763;48.524;9.044;2022-12-05T22:05:02;98038.81;;;9.63;54.38
13387;BME280;6763;48.524;9.044;2022-12-05T22:07:27;98036.19;;;9.66;53.94
13387;BME280;6763;48.524;9.044;2022-12-05T22:09:53;98038.75;;;9.68;53.70
13387;BME280;6763;48.524;9.044;2022-12-05T22:12:18;98043.03;;;9.70;53.87
13387;BME280;6763;48.524;9.044;2022-12-05T22:14:43;98036.16;;;9.68;53.75
13387;BME280;6763;48.524;9.044;2022-12-05T22:17:09;98036.16;;;9.68;54.02
13387;BME280;6763;48.524;9.044;2022-12-05T22:19:34;98034.44;;;9.68;54.11
13387;BME280;6763;48.524;9.044;2022-12-05T22:21:59;98036.16;;;9.68;54.00
13387;BME280;6763;48.524;9.044;2022-12-05T22:24:25;98025.00;;;9.67;53.77
13387;BME280;6763;48.524;9.044;2022-12-05T22:26:50;98026.69;;;9.68;53.66
13387;BME280;6763;48.524;9.044;2022-12-05T22:29:15;98030.13;;;9.69;54.18
13387;BME280;6763;48.524;9.044;2022-12-05T22:31:41;98030.16;;;9.67;53.81
13387;BME280;6763;48.524;9.044;2022-12-05T22:34:06;98026.72;;;9.67;53.49
13387;BME280;6763;48.524;9.044;2022-12-05T22:36:35;98027.56;;;9.66;53.74
13387;BME280;6763;48.524;9.044;2022-12-05T22:39:00;98024.13;;;9.65;53.98
13387;BME280;6763;48.524;9.044;2022-12-05T22:41:26;98029.31;;;9.64;54.07
13387;BME280;6763;48.524;9.044;2022-12-05T22:43:57;98030.22;;;9.61;54.26
13387;BME280;6763;48.524;9.044;2022-12-05T22:46:24;98030.22;;;9.61;54.21
13387;BME280;6763;48.524;9.044;2022-12-05T22:48:50;98030.25;;;9.58;54.22
13387;BME280;6763;48.524;9.044;2022-12-05T22:51:17;98022.53;;;9.57;54.41
13387;BME280;6763;48.524;9.044;2022-12-05T22:53:43;98028.53;;;9.56;54.31
13387;BME280;6763;48.524;9.044;2022-12-05T22:56:14;98018.28;;;9.51;54.03
13387;BME280;6763;48.524;9.044;2022-12-05T22:58:40;98009.69;;;9.48;53.94
13387;BME280;6763;48.524;9.044;2022-12-05T23:03:36;98023.47;;;9.48;54.64
13387;BME280;6763;48.524;9.044;2022-12-05T23:06:03;98023.44;;;9.50;54.44
13387;BME280;6763;48.524;9.044;2022-12-05T23:08:30;98021.75;;;9.49;54.09
13387;BME280;6763;48.524;9.044;2022-12-05T23:10:57;98015.69;;;9.50;54.56
13387;BME280;6763;48.524;9.044;2022-12-05T23:13:22;98012.25;;;9.51;54.52
13387;BME280;6763;48.524;9.044;2022-12-05T23:15:48;98007.94;;;9.50;54.43
13387;BME280;6763;48.524;9.044;2022-12-05T23:18:13;98016.56;;;9.49;54.05
13387;BME280;6763;48.524;9.044;2022-12-05T23:20:40;98006.28;;;9.46;54.42
13387;BME280;6763;48.524;9.044;2022-12-05T23:23:05;98010.59;;;9.42;54.57
13387;BME280;6763;48.524;9.044;2022-12-05T23:25:30;98005.44;;;9.42;55.04
13387;BME280;6763;48.524;9.044;2022-12-05T23:27:56;98004.63;;;9.39;54.82
13387;BME280;6763;48.524;9.044;2022-12-05T23:30:21;97999.47;;;9.37;54.51
13387;BME280;6763;48.524;9.044;2022-12-05T23:32:46;98004.66;;;9.35;55.35
13387;BME280;6763;48.524;9.044;2022-12-05T23:35:12;98002.97;;;9.33;54.77
13387;BME280;6763;48.524;9.044;2022-12-05T23:37:37;98000.38;;;9.33;55.05
13387;BME280;6763;48.524;9.044;2022-12-05T23:40:04;98004.72;;;9.31;54.72
13387;BME280;6763;48.524;9.044;2022-12-05T23:42:29;98003.00;;;9.30;54.87
13387;BME280;6763;48.524;9.044;2022-12-05T23:44:54;98009.00;;;9.32;55.28
13387;BME280;6763;48.524;9.044;2022-12-05T23:47:20;98004.66;;;9.34;54.94
13387;BME280;6763;48.524;9.044;2022-12-05T23:49:45;98005.53;;;9.33;54.78
13387;BME280;6763;48.524;9.044;2022-12-05T23:52:10;98004.69;;;9.32;55.11
13387;BME280;6763;48.524;9.044;2022-12-05T23:54:36;97996.16;;;9.26;55.19
13387;BME280;6763;48.524;9.044;2022-12-05T23:57:01;97996.19;;;9.23;55.35
13387;BME280;6763;48.524;9.044;2022-12-05T23:59:27;97996.19;;;9.23;55.15
